Time;durP1;ratioP1;P1;durP2;ratioP2;P2;SDS_P1;SDS_P2;PMS_P1;PMS_P2;Temp;Humidity;BMP_temperature;BMP_pressure;BME280_temperature;BME280_humidity;BME280_pressure;Samples;Min_cycle;Max_cycle;Signal;HPM_P1;HPM_P2
2023/01/16 00:01:15;;;;;;;1.13;1.13;;;;;;;3.57;97.26;95721.56;5070652;28;20237;-58
2023/01/16 00:03:41;;;;;;;1.50;1.40;;;;;;;3.46;99.42;95715.41;5071231;28;20310;-58
2023/01/16 00:06:08;;;;;;;1.70;1.43;;;;;;;3.47;97.46;95703.19;5071208;28;21299;-58
2023/01/16 00:08:36;;;;;;;1.63;1.53;;;;;;;3.53;97.75;95701.84;5071716;28;20221;-58
2023/01/16 00:11:02;;;;;;;1.70;1.60;;;;;;;3.50;99.23;95693.31;5071184;28;20214;-59
2023/01/16 00:13:29;;;;;;;1.60;1.50;;;;;;;3.36;100.00;95692.75;5071915;28;20221;-60
2023/01/16 00:15:56;;;;;;;1.93;1.70;;;;;;;3.31;100.00;95687.88;5074621;28;20206;-58
2023/01/16 00:18:22;;;;;;;1.87;1.50;;;;;;;3.28;100.00;95680.28;5083599;28;20222;-58
2023/01/16 00:20:49;;;;;;;1.20;1.20;;;;;;;3.30;100.00;95690.59;5082522;28;20660;-58
2023/01/16 00:23:15;;;;;;;1.50;1.40;;;;;;;3.19;100.00;95675.78;5094122;28;20209;-58
2023/01/16 00:25:44;;;;;;;1.83;1.43;;;;;;;3.06;100.00;95675.09;5093074;28;20203;-58
2023/01/16 00:28:11;;;;;;;2.13;1.53;;;;;;;3.04;100.00;95678.78;5087216;28;20206;-58
2023/01/16 00:30:38;;;;;;;1.30;1.30;;;;;;;2.89;100.00;95663.38;5086147;28;20209;-58
2023/01/16 00:33:05;;;;;;;1.60;1.50;;;;;;;2.83;100.00;95663.88;5083588;28;20269;-59
2023/01/16 00:35:32;;;;;;;1.30;1.20;;;;;;;2.85;100.00;95655.91;5078668;28;20210;-58
2023/01/16 00:37:59;;;;;;;1.57;1.47;;;;;;;2.83;100.00;95648.22;5075141;28;20222;-58
2023/01/16 00:40:25;;;;;;;1.27;1.20;;;;;;;2.77;100.00;95643.44;5072285;28;20214;-57
2023/01/16 00:42:53;;;;;;;1.90;1.70;;;;;;;2.77;100.00;95632.16;5071286;28;20211;-57
2023/01/16 00:45:20;;;;;;;1.60;1.50;;;;;;;2.73;100.00;95626.34;5071925;28;20578;-59
2023/01/16 00:47:46;;;;;;;1.50;1.40;;;;;;;2.69;100.00;95614.53;5072077;28;20206;-59
2023/01/16 00:50:13;;;;;;;1.83;1.73;;;;;;;2.68;100.00;95607.63;5071708;28;20538;-59
2023/01/16 00:52:40;;;;;;;1.83;1.73;;;;;;;2.65;100.00;95602.66;5071048;28;20218;-59
2023/01/16 00:55:06;;;;;;;1.97;1.87;;;;;;;2.57;100.00;95594.59;5069732;28;20210;-57
2023/01/16 00:57:35;;;;;;;1.87;1.50;;;;;;;2.58;100.00;95591.03;5071356;28;20209;-58
2023/01/16 01:00:04;;;;;;;2.00;1.90;;;;;;;2.53;100.00;95582.75;5071393;28;21388;-59
2023/01/16 01:02:31;;;;;;;1.70;1.60;;;;;;;2.48;100.00;95590.06;5070370;28;20654;-57
2023/01/16 01:04:57;;;;;;;2.20;2.10;;;;;;;2.46;100.00;95582.38;5071454;28;20211;-58
2023/01/16 01:07:24;;;;;;;1.73;1.63;;;;;;;2.39;100.00;95583.81;5072093;28;20650;-58
2023/01/16 01:09:50;;;;;;;1.80;1.70;;;;;;;2.25;100.00;95573.63;5075518;28;20209;-58
2023/01/16 01:12:17;;;;;;;1.73;1.63;;;;;;;2.20;100.00;95580.13;5074839;28;20201;-58
2023/01/16 01:14:43;;;;;;;1.60;1.50;;;;;;;2.12;100.00;95570.31;5075115;28;20212;-58
2023/01/16 01:17:11;;;;;;;1.80;1.70;;;;;;;2.10;100.00;95560.94;5075903;28;20198;-58
2023/01/16 01:19:37;;;;;;;1.27;1.27;;;;;;;2.03;100.00;95565.78;5077007;28;20236;-60
2023/01/16 01:22:04;;;;;;;1.50;1.40;;;;;;;1.99;100.00;95559.97;5077120;28;20224;-57
2023/01/16 01:24:31;;;;;;;2.20;1.47;;;;;;;2.02;100.00;95560.72;5076511;28;20535;-58
2023/01/16 01:26:57;;;;;;;2.40;1.50;;;;;;;1.98;100.00;95555.72;5074547;28;20224;-58
2023/01/16 01:29:24;;;;;;;1.40;1.30;;;;;;;1.94;100.00;95549.09;5074203;28;20199;-57
2023/01/16 01:31:50;;;;;;;1.20;1.10;;;;;;;1.83;100.00;95554.28;5074421;28;20627;-59
2023/01/16 01:34:18;;;;;;;1.00;1.00;;;;;;;1.92;100.00;95550.13;5074713;28;20236;-59
2023/01/16 01:36:45;;;;;;;1.97;0.90;;;;;;;1.92;100.00;95540.53;5075405;28;20212;-59
2023/01/16 01:39:11;;;;;;;1.33;1.30;;;;;;;1.97;100.00;95528.00;5073878;28;20307;-56
2023/01/16 01:41:38;;;;;;;1.57;1.00;;;;;;;1.98;100.00;95519.22;5087693;28;20209;-58
2023/01/16 01:44:38;;;;;;;1.40;1.30;;;;;;;2.03;100.00;95520.63;5088177;28;20550;-61
2023/01/16 01:47:04;;;;;;;1.20;1.20;;;;;;;2.08;100.00;95498.50;5086636;28;20226;-58
2023/01/16 01:49:32;;;;;;;1.27;1.27;;;;;;;2.06;100.00;95494.31;5082448;28;20205;-59
2023/01/16 01:52:02;;;;;;;1.60;1.50;;;;;;;2.00;100.00;95495.63;5081489;28;20202;-57
2023/01/16 01:54:31;;;;;;;1.90;1.80;;;;;;;2.02;100.00;95477.28;5084182;28;20209;-59
2023/01/16 01:57:01;;;;;;;2.83;1.77;;;;;;;1.97;100.00;95470.66;5078881;28;20205;-58
2023/01/16 01:59:29;;;;;;;1.80;1.70;;;;;;;1.97;100.00;95464.59;5073766;28;20214;-57
2023/01/16 02:01:56;;;;;;;1.63;1.53;;;;;;;1.93;100.00;95458.78;5071618;28;20230;-59
2023/01/16 02:04:25;;;;;;;1.83;1.73;;;;;;;1.91;100.00;95446.84;5072951;28;20210;-58
2023/01/16 02:06:56;;;;;;;1.63;1.53;;;;;;;1.90;100.00;95438.19;5072134;28;20209;-58
2023/01/16 02:09:24;;;;;;;2.27;1.80;;;;;;;1.86;100.00;95421.13;5071906;28;20213;-58
2023/01/16 02:11:54;;;;;;;2.40;1.90;;;;;;;1.89;100.00;95414.84;5071972;28;20206;-58
2023/01/16 02:14:21;;;;;;;1.43;1.37;;;;;;;1.86;100.00;95404.66;5072380;28;20198;-58
2023/01/16 02:19:41;;;;;;;1.60;1.50;;;;;;;1.80;100.00;95397.31;5071200;28;20240;-57
2023/01/16 02:22:49;;;;;;;1.37;1.27;;;;;;;1.84;100.00;95389.13;5072315;28;20216;-56
2023/01/16 02:26:04;;;;;;;1.37;1.30;;;;;;;1.86;100.00;95371.59;5071904;28;20210;-58
2023/01/16 02:29:02;;;;;;;1.50;1.40;;;;;;;1.88;100.00;95363.66;5068605;28;20232;-58
2023/01/16 02:31:33;;;;;;;1.33;1.30;;;;;;;1.89;100.00;95358.31;5061486;28;20346;-57
2023/01/16 02:34:12;;;;;;;1.23;1.23;;;;;;;1.83;100.00;95348.41;5071519;28;20194;-58
2023/01/16 02:36:45;;;;;;;1.57;1.47;;;;;;;1.80;100.00;95343.44;5072228;28;20198;-58
2023/01/16 02:39:18;;;;;;;1.90;1.70;;;;;;;1.77;100.00;95333.22;5071630;28;20206;-57
2023/01/16 02:41:49;;;;;;;1.90;1.80;;;;;;;1.74;100.00;95327.44;5072567;28;20962;-59
2023/01/16 02:44:23;;;;;;;1.60;1.50;;;;;;;1.71;100.00;95318.09;5072032;28;20662;-57
2023/01/16 02:46:56;;;;;;;1.30;1.20;;;;;;;1.62;100.00;95310.19;5072763;28;20216;-57
2023/01/16 02:49:29;;;;;;;1.50;1.40;;;;;;;1.52;100.00;95307.47;5074069;28;20193;-58
2023/01/16 02:51:59;;;;;;;2.13;1.60;;;;;;;1.54;100.00;95310.78;5075849;28;20206;-58
2023/01/16 02:54:28;;;;;;;1.27;1.27;;;;;;;1.59;100.00;95294.78;5075775;28;20207;-57
2023/01/16 02:57:08;;;;;;;1.20;1.20;;;;;;;1.62;100.00;95282.34;5072053;28;20209;-59
2023/01/16 02:59:35;;;;;;;1.20;1.20;;;;;;;1.59;100.00;95274.78;5072153;28;20289;-58
2023/01/16 03:02:03;;;;;;;1.60;1.50;;;;;;;1.52;100.00;95260.59;5034671;28;1060321;-56
2023/01/16 03:04:51;;;;;;;1.07;1.07;;;;;;;1.48;100.00;95253.97;5072076;28;20202;-57
2023/01/16 03:07:52;;;;;;;1.47;1.37;;;;;;;1.42;100.00;95250.06;5067652;28;20215;-57
2023/01/16 03:10:36;;;;;;;1.73;1.30;;;;;;;1.42;100.00;95241.41;5068364;28;20209;-58
2023/01/16 03:13:11;;;;;;;1.37;1.30;;;;;;;1.32;100.00;95243.09;5071972;28;20211;-57
2023/01/16 03:15:43;;;;;;;1.47;1.37;;;;;;;1.26;100.00;95238.38;5071120;28;20201;-57
2023/01/16 03:18:16;;;;;;;1.50;1.40;;;;;;;1.30;100.00;95234.59;5072069;28;20309;-58
2023/01/16 03:20:50;;;;;;;1.10;1.10;;;;;;;1.28;100.00;95223.44;5071582;28;20634;-57
2023/01/16 03:23:24;;;;;;;1.10;1.10;;;;;;;1.23;100.00;95205.63;5071180;28;20196;-58
2023/01/16 03:25:54;;;;;;;1.03;1.03;;;;;;;1.26;100.00;95196.72;5071807;28;20206;-58
2023/01/16 03:28:24;;;;;;;1.87;1.40;;;;;;;1.22;100.00;95192.72;5071950;28;20217;-59
2023/01/16 03:30:55;;;;;;;1.30;1.20;;;;;;;1.00;100.00;95167.53;5071502;28;20203;-59
2023/01/16 03:33:31;;;;;;;1.10;1.10;;;;;;;0.99;100.00;95173.72;5071919;28;20218;-59
2023/01/16 03:36:04;;;;;;;0.90;0.90;;;;;;;1.02;100.00;95167.44;5071605;28;20204;-59
2023/01/16 03:38:32;;;;;;;1.00;1.00;;;;;;;1.04;100.00;95165.53;5071813;28;20206;-58
2023/01/16 03:41:01;;;;;;;1.37;1.27;;;;;;;1.02;100.00;95151.81;5071103;28;20216;-57
2023/01/16 03:43:30;;;;;;;0.80;0.80;;;;;;;1.00;100.00;95150.16;5072057;28;20276;-59
2023/01/16 03:45:59;;;;;;;0.80;0.80;;;;;;;1.01;100.00;95137.97;5071948;28;20225;-57
2023/01/16 03:48:31;;;;;;;0.97;0.97;;;;;;;1.04;100.00;95139.50;5071903;28;20205;-57
2023/01/16 03:50:59;;;;;;;0.53;0.53;;;;;;;1.06;100.00;95129.81;5072314;28;20532;-58
2023/01/16 03:53:30;;;;;;;0.70;0.70;;;;;;;1.04;100.00;95118.69;5072004;28;20209;-59
2023/01/16 03:56:02;;;;;;;1.00;1.00;;;;;;;0.99;100.00;95104.25;5071290;28;21349;-59
2023/01/16 03:58:32;;;;;;;1.00;0.97;;;;;;;0.98;100.00;95107.00;5072284;28;20211;-59
2023/01/16 04:01:03;;;;;;;1.70;1.03;;;;;;;0.91;100.00;95098.03;5071919;28;20241;-57
2023/01/16 04:03:37;;;;;;;0.73;0.73;;;;;;;0.93;100.00;95083.94;5072663;28;20220;-59
2023/01/16 04:06:08;;;;;;;0.83;0.83;;;;;;;0.98;100.00;95078.38;5072650;28;20211;-57
2023/01/16 04:08:38;;;;;;;0.70;0.70;;;;;;;1.04;100.00;95064.03;5072271;28;20208;-58
2023/01/16 04:11:05;;;;;;;0.80;0.80;;;;;;;0.97;100.00;95059.31;5070903;28;20618;-58
2023/01/16 04:13:35;;;;;;;1.63;0.83;;;;;;;0.94;100.00;95046.56;5071021;28;20206;-57
2023/01/16 04:16:04;;;;;;;1.80;0.90;;;;;;;0.88;100.00;95035.84;5070780;28;20524;-58
2023/01/16 04:18:34;;;;;;;0.60;0.60;;;;;;;0.97;100.00;95025.50;5070630;28;20633;-58
2023/01/16 04:21:00;;;;;;;2.03;0.80;;;;;;;0.93;100.00;95008.47;5070751;28;20315;-59
2023/01/16 04:23:27;;;;;;;0.73;0.73;;;;;;;0.90;100.00;95000.91;5070582;28;20210;-59
2023/01/16 04:25:53;;;;;;;0.70;0.70;;;;;;;0.96;100.00;95002.19;5070702;28;20211;-58
2023/01/16 04:28:20;;;;;;;0.70;0.70;;;;;;;0.92;100.00;94993.81;5070424;28;20218;-57
2023/01/16 04:30:46;;;;;;;0.43;0.43;;;;;;;0.90;100.00;94992.28;5070558;28;20205;-59
2023/01/16 04:33:13;;;;;;;0.53;0.53;;;;;;;0.90;100.00;94982.72;5071045;28;20217;-57
2023/01/16 04:35:41;;;;;;;0.70;0.70;;;;;;;0.90;100.00;94971.47;5070515;28;20548;-57
2023/01/16 04:38:07;;;;;;;0.57;0.50;;;;;;;0.82;100.00;94966.88;5070794;28;20297;-59
2023/01/16 04:40:34;;;;;;;0.30;0.30;;;;;;;0.85;100.00;94958.81;5070085;28;20222;-57
2023/01/16 04:43:01;;;;;;;0.57;0.57;;;;;;;0.77;100.00;94950.03;5070882;28;20212;-59
2023/01/16 04:45:27;;;;;;;0.50;0.50;;;;;;;0.76;100.00;94941.38;5070531;28;20207;-58
2023/01/16 04:47:53;;;;;;;3.50;0.60;;;;;;;0.71;100.00;94930.50;5070822;28;20235;-57
2023/01/16 04:50:20;;;;;;;1.33;0.67;;;;;;;0.71;100.00;94908.91;5070416;28;20530;-57
2023/01/16 04:52:48;;;;;;;0.50;0.50;;;;;;;0.73;100.00;94902.63;5070143;28;20578;-58
2023/01/16 04:55:15;;;;;;;0.70;0.50;;;;;;;0.72;100.00;94903.56;5070326;28;20216;-59
2023/01/16 04:57:41;;;;;;;0.40;0.40;;;;;;;0.74;100.00;94893.88;5070087;28;20650;-59
2023/01/16 05:00:10;;;;;;;0.43;0.43;;;;;;;0.79;100.00;94896.06;5070028;28;20236;-57
2023/01/16 05:02:37;;;;;;;0.30;0.30;;;;;;;0.79;100.00;94891.69;5069960;28;20252;-57
2023/01/16 05:05:04;;;;;;;0.67;0.60;;;;;;;0.73;100.00;94876.59;5069986;28;20659;-60
2023/01/16 05:07:30;;;;;;;0.43;0.43;;;;;;;0.78;100.00;94877.03;5070528;28;20214;-57
2023/01/16 05:09:58;;;;;;;1.20;0.67;;;;;;;0.82;100.00;94875.84;5069836;28;20273;-58
2023/01/16 05:12:24;;;;;;;1.13;0.70;;;;;;;0.75;100.00;94866.06;5070159;28;20213;-58
2023/01/16 05:14:51;;;;;;;0.93;0.60;;;;;;;0.81;100.00;94858.59;5069840;28;20613;-58
2023/01/16 05:17:17;;;;;;;0.50;0.50;;;;;;;0.84;100.00;94850.53;5070180;28;20203;-58
2023/01/16 05:19:44;;;;;;;3.47;2.63;;;;;;;0.78;100.00;94832.81;5075466;28;20226;-58
2023/01/16 05:22:10;;;;;;;1.47;1.13;;;;;;;0.76;100.00;94829.53;5083754;28;20228;-57
2023/01/16 05:24:37;;;;;;;0.70;0.70;;;;;;;0.74;100.00;94825.41;5078282;28;20201;-59
2023/01/16 05:27:05;;;;;;;0.50;0.50;;;;;;;0.71;100.00;94828.28;5071503;28;20205;-58
2023/01/16 05:29:31;;;;;;;0.60;0.60;;;;;;;0.75;100.00;94816.63;5070387;28;20225;-56
2023/01/16 05:31:58;;;;;;;1.20;0.80;;;;;;;0.79;100.00;94805.84;5070636;28;20213;-58
2023/01/16 05:34:24;;;;;;;0.87;0.73;;;;;;;0.78;100.00;94804.19;5069406;28;20221;-57
2023/01/16 05:36:50;;;;;;;2.43;0.90;;;;;;;0.77;100.00;94794.75;5069692;28;20236;-58
2023/01/16 05:39:17;;;;;;;0.87;0.80;;;;;;;0.78;100.00;94785.19;5068942;28;20236;-57
2023/01/16 05:41:43;;;;;;;1.03;0.80;;;;;;;0.78;100.00;94787.78;5069718;28;20202;-56
2023/01/16 05:44:11;;;;;;;0.47;0.47;;;;;;;0.78;100.00;94775.59;5069376;28;20217;-57
2023/01/16 05:46:38;;;;;;;0.63;0.63;;;;;;;0.80;100.00;94762.47;5069991;28;20208;-57
2023/01/16 05:49:04;;;;;;;0.67;0.37;;;;;;;0.75;100.00;94757.63;5069565;28;20209;-56
2023/01/16 05:51:31;;;;;;;0.60;0.60;;;;;;;0.78;100.00;94746.97;5069796;28;20208;-56
2023/01/16 05:53:57;;;;;;;3.27;0.50;;;;;;;0.77;100.00;94740.13;5070122;28;20205;-59
2023/01/16 05:56:24;;;;;;;0.77;0.63;;;;;;;0.76;100.00;94741.09;5073895;28;20220;-58
2023/01/16 05:58:50;;;;;;;2.13;0.60;;;;;;;0.75;100.00;94728.19;5073084;28;20209;-57
2023/01/16 06:01:18;;;;;;;1.33;0.83;;;;;;;0.70;100.00;94723.41;5072952;28;20821;-58
2023/01/16 06:03:45;;;;;;;0.77;0.60;;;;;;;0.74;100.00;94714.41;5073870;28;20221;-56
2023/01/16 06:06:11;;;;;;;1.33;0.40;;;;;;;0.73;100.00;94707.53;5073272;28;20206;-57
2023/01/16 06:08:37;;;;;;;1.70;0.60;;;;;;;0.71;100.00;94706.81;5073764;28;20216;-57
2023/01/16 06:11:04;;;;;;;1.30;0.57;;;;;;;0.74;100.00;94696.19;5073554;28;20216;-56
2023/01/16 06:13:32;;;;;;;0.20;0.20;;;;;;;0.70;100.00;94680.97;5073582;28;20214;-56
2023/01/16 06:15:59;;;;;;;0.63;0.60;;;;;;;0.68;100.00;94665.47;5073555;28;20205;-56
2023/01/16 06:18:29;;;;;;;1.50;0.60;;;;;;;0.69;100.00;94661.94;5073050;28;20201;-57
2023/01/16 06:20:55;;;;;;;0.33;0.33;;;;;;;0.68;100.00;94646.44;5072865;28;20300;-56
2023/01/16 06:23:22;;;;;;;0.90;0.70;;;;;;;0.69;100.00;94656.72;5072707;28;20218;-57
2023/01/16 06:25:49;;;;;;;0.60;0.60;;;;;;;0.66;100.00;94636.19;5072293;28;20223;-57
2023/01/16 06:28:16;;;;;;;0.70;0.70;;;;;;;0.71;100.00;94623.59;5072755;28;20225;-57
2023/01/16 06:30:42;;;;;;;0.90;0.90;;;;;;;0.75;100.00;94617.16;5073316;28;20204;-57
2023/01/16 06:33:09;;;;;;;2.67;1.17;;;;;;;0.73;100.00;94621.69;5073046;28;20213;-58
2023/01/16 06:35:37;;;;;;;3.53;0.80;;;;;;;0.73;100.00;94611.28;5073143;28;20653;-58
2023/01/16 06:38:03;;;;;;;1.83;0.77;;;;;;;0.72;100.00;94607.03;5073141;28;20283;-58
2023/01/16 06:40:30;;;;;;;2.67;1.00;;;;;;;0.76;100.00;94611.03;5072138;28;20238;-58
2023/01/16 06:42:56;;;;;;;1.00;0.77;;;;;;;0.81;100.00;94606.25;5073182;28;20211;-58
2023/01/16 06:45:24;;;;;;;1.40;0.70;;;;;;;0.82;100.00;94588.84;5072881;28;20212;-57
2023/01/16 06:47:53;;;;;;;0.93;0.60;;;;;;;0.86;100.00;94596.25;5073226;28;20212;-58
2023/01/16 06:50:20;;;;;;;1.67;0.70;;;;;;;0.91;100.00;94594.09;5072808;28;21407;-56
2023/01/16 06:52:48;;;;;;;2.77;1.03;;;;;;;0.82;100.00;94578.44;5073192;28;20201;-57
2023/01/16 06:55:14;;;;;;;0.67;0.67;;;;;;;0.87;100.00;94571.06;5072473;28;20646;-58
2023/01/16 06:57:41;;;;;;;2.40;0.97;;;;;;;0.87;100.00;94571.88;5073368;28;20295;-58
2023/01/16 07:00:09;;;;;;;1.37;0.67;;;;;;;0.83;100.00;94560.09;5073144;28;20217;-58
2023/01/16 07:02:39;;;;;;;2.20;1.70;;;;;;;0.86;100.00;94554.63;5073111;28;21019;-57
2023/01/16 07:05:07;;;;;;;3.43;3.07;;;;;;;0.91;100.00;94546.44;5072052;28;20276;-57
2023/01/16 07:07:33;;;;;;;0.80;0.80;;;;;;;0.96;100.00;94539.84;5072878;28;20198;-58
2023/01/16 07:10:01;;;;;;;1.07;0.80;;;;;;;0.98;100.00;94527.53;5074694;28;20217;-58
2023/01/16 07:12:27;;;;;;;0.50;0.50;;;;;;;0.87;100.00;94521.63;5075236;28;20218;-58
2023/01/16 07:23:15;;;;;;;0.67;0.67;;;;;;;0.89;100.00;94525.72;5075192;28;20213;-58
2023/01/16 07:25:43;;;;;;;1.00;0.90;;;;;;;0.95;100.00;94529.59;5072733;28;20205;-57
2023/01/16 07:28:10;;;;;;;1.73;1.27;;;;;;;0.99;100.00;94526.56;5075526;28;20204;-57
2023/01/16 07:30:37;;;;;;;1.03;0.90;;;;;;;1.00;100.00;94512.59;5074180;28;20696;-56
2023/01/16 07:33:04;;;;;;;0.93;0.93;;;;;;;0.92;100.00;94494.25;5073217;28;21408;-58
2023/01/16 07:35:30;;;;;;;1.10;1.10;;;;;;;0.93;100.00;94485.47;5074396;28;20209;-58
2023/01/16 07:37:57;;;;;;;1.20;1.10;;;;;;;0.92;100.00;94481.22;5074190;28;20208;-58
2023/01/16 07:40:23;;;;;;;1.10;1.10;;;;;;;1.00;100.00;94467.53;5071194;28;20270;-57
2023/01/16 07:42:52;;;;;;;1.47;1.17;;;;;;;1.03;100.00;94466.47;5071674;28;20304;-58
2023/01/16 07:45:19;;;;;;;1.90;1.60;;;;;;;1.09;100.00;94456.31;5071085;28;20637;-57
2023/01/16 07:47:45;;;;;;;1.33;1.23;;;;;;;1.16;100.00;94461.78;5070749;28;20279;-57
2023/01/16 07:50:12;;;;;;;1.10;1.00;;;;;;;1.18;100.00;94457.22;5072304;28;20202;-57
2023/01/16 07:52:38;;;;;;;1.47;1.37;;;;;;;1.21;100.00;94469.97;5081220;28;20201;-58
2023/01/16 07:55:06;;;;;;;1.90;1.10;;;;;;;1.20;100.00;94469.16;5084301;28;20304;-58
2023/01/16 07:57:32;;;;;;;1.53;1.43;;;;;;;1.13;100.00;94452.47;5087636;28;20220;-58
2023/01/16 08:00:00;;;;;;;0.80;0.80;;;;;;;1.21;100.00;94462.16;5080225;28;20201;-58
2023/01/16 08:02:27;;;;;;;1.60;1.10;;;;;;;1.23;100.00;94463.69;5073332;28;20233;-56
2023/01/16 08:04:53;;;;;;;1.30;1.00;;;;;;;1.32;100.00;94465.44;5073949;28;20209;-58
2023/01/16 08:07:19;;;;;;;0.90;0.90;;;;;;;1.30;100.00;94450.91;5073284;28;20205;-58
2023/01/16 08:09:46;;;;;;;1.57;1.20;;;;;;;1.40;100.00;94455.13;5071558;28;20200;-58
2023/01/16 08:12:12;;;;;;;0.97;0.90;;;;;;;1.39;100.00;94445.69;5071831;28;20210;-57
2023/01/16 08:14:39;;;;;;;2.43;1.00;;;;;;;1.46;100.00;94431.13;5071069;28;20659;-55
2023/01/16 08:17:07;;;;;;;0.67;0.67;;;;;;;1.58;100.00;94442.19;5071498;28;20208;-58
2023/01/16 08:19:33;;;;;;;1.00;0.80;;;;;;;1.64;100.00;94438.19;5071617;28;20229;-58
2023/01/16 08:22:00;;;;;;;0.73;0.70;;;;;;;1.68;100.00;94431.75;5071510;28;20221;-58
2023/01/16 08:24:26;;;;;;;1.07;0.80;;;;;;;1.71;100.00;94436.66;5070468;28;20653;-57
2023/01/16 08:26:53;;;;;;;1.03;0.70;;;;;;;1.61;100.00;94418.47;5071877;28;20220;-58
2023/01/16 08:29:20;;;;;;;0.93;0.73;;;;;;;1.61;100.00;94415.88;5071707;28;20210;-57
2023/01/16 08:31:46;;;;;;;0.93;0.93;;;;;;;1.72;100.00;94405.25;5071976;28;20194;-58
2023/01/16 08:34:14;;;;;;;2.57;1.27;;;;;;;1.68;100.00;94388.28;5072010;28;20226;-57
2023/01/16 08:36:41;;;;;;;2.00;1.27;;;;;;;1.69;100.00;94392.53;5073115;28;20218;-60
2023/01/16 08:39:09;;;;;;;1.40;1.27;;;;;;;1.81;100.00;94393.97;5070907;28;20206;-58
2023/01/16 08:52:36;;;;;;;1.03;0.87;;;;;;;1.99;100.00;94399.22;5071484;28;20204;-58
2023/01/16 08:55:03;;;;;;;0.80;0.80;;;;;;;2.06;100.00;94426.34;5070437;28;20220;-57
2023/01/16 08:57:30;;;;;;;1.17;0.90;;;;;;;2.09;100.00;94420.03;5071010;28;20227;-58
2023/01/16 08:59:57;;;;;;;0.90;0.90;;;;;;;2.14;100.00;94425.59;5070833;28;20221;-58
2023/01/16 09:02:24;;;;;;;0.53;0.53;;;;;;;2.17;100.00;94401.84;5070612;28;20242;-57
2023/01/16 09:04:53;;;;;;;1.93;1.00;;;;;;;2.27;100.00;94428.66;5070506;28;20202;-57
2023/01/16 09:07:20;;;;;;;1.40;0.80;;;;;;;2.37;100.00;94438.06;5070757;28;20198;-58
2023/01/16 09:09:46;;;;;;;0.70;0.70;;;;;;;2.38;99.99;94437.13;5070386;28;20205;-58
2023/01/16 09:14:59;;;;;;;1.10;1.10;;;;;;;2.43;100.00;94428.84;5070363;28;20205;-57
2023/01/16 09:17:26;;;;;;;1.37;1.27;;;;;;;2.54;100.00;94426.03;5071064;28;20229;-57
2023/01/16 09:19:54;;;;;;;1.50;1.30;;;;;;;2.58;100.00;94422.16;5070579;28;20209;-56
2023/01/16 09:22:20;;;;;;;1.97;1.63;;;;;;;2.63;100.00;94430.34;5070656;28;20260;-57
2023/01/16 09:24:47;;;;;;;1.80;1.70;;;;;;;2.66;100.00;94424.03;5070132;28;20210;-58
2023/01/16 09:27:13;;;;;;;1.70;1.10;;;;;;;2.59;100.00;94418.56;5070702;28;20202;-58
2023/01/16 09:29:40;;;;;;;1.60;1.50;;;;;;;2.54;100.00;94409.56;5073191;28;20197;-57
2023/01/16 09:32:08;;;;;;;1.37;1.30;;;;;;;2.63;100.00;94425.13;5074273;28;20206;-58
2023/01/16 09:34:35;;;;;;;1.97;1.77;;;;;;;2.62;100.00;94425.31;5074373;28;20214;-57
2023/01/16 09:37:03;;;;;;;2.10;1.63;;;;;;;2.61;100.00;94432.31;5074393;28;20206;-58
2023/01/16 09:39:30;;;;;;;3.87;1.97;;;;;;;2.61;100.00;94416.66;5073657;28;20194;-58
2023/01/16 09:44:53;;;;;;;4.57;1.73;;;;;;;2.70;100.00;94407.91;5074066;28;20189;-58
2023/01/16 09:47:22;;;;;;;2.00;1.90;;;;;;;2.69;100.00;94408.06;5073918;28;20225;-58
2023/01/16 09:49:52;;;;;;;2.37;2.17;;;;;;;2.69;100.00;94403.69;5074063;28;20206;-58
2023/01/16 10:00:47;;;;;;;2.33;2.13;;;;;;;2.78;100.00;94375.84;5073095;28;20221;-57
2023/01/16 10:03:13;;;;;;;3.03;2.60;;;;;;;2.78;100.00;94363.63;5074107;28;20217;-58
2023/01/16 10:05:47;;;;;;;2.47;2.20;;;;;;;2.86;100.00;94363.69;5073603;28;20190;-57
2023/01/16 10:08:21;;;;;;;4.97;2.80;;;;;;;2.95;100.00;94360.16;5073761;28;20213;-57
2023/01/16 10:10:50;;;;;;;2.93;2.23;;;;;;;3.03;100.00;94353.34;5073407;28;20191;-58
2023/01/16 10:13:27;;;;;;;2.77;2.47;;;;;;;3.06;100.00;94359.09;5073336;28;20227;-57
2023/01/16 10:16:00;;;;;;;3.70;2.53;;;;;;;3.23;100.00;94352.16;5073427;28;20537;-57
2023/01/16 10:18:32;;;;;;;2.63;2.00;;;;;;;3.22;98.67;94347.94;5074711;28;20191;-57
2023/01/16 10:21:14;;;;;;;2.67;2.47;;;;;;;3.32;99.15;94348.63;5080392;28;20225;-57
2023/01/16 10:23:50;;;;;;;2.43;2.00;;;;;;;3.38;96.87;94348.00;5079343;28;20206;-58
2023/01/16 10:26:23;;;;;;;2.27;2.00;;;;;;;3.46;97.67;94350.66;5078215;28;20190;-57
2023/01/16 10:28:56;;;;;;;2.10;2.00;;;;;;;3.48;94.88;94343.47;5074346;28;20187;-58
2023/01/16 10:31:25;;;;;;;2.33;2.03;;;;;;;3.60;96.66;94342.25;5074366;28;20256;-57
2023/01/16 10:33:56;;;;;;;2.43;2.20;;;;;;;3.67;96.58;94332.81;5074704;28;20211;-57
2023/01/16 10:36:25;;;;;;;2.13;1.93;;;;;;;3.69;93.83;94330.00;5073697;28;20695;-57
2023/01/16 10:38:56;;;;;;;3.90;2.13;;;;;;;3.75;98.06;94311.94;5073750;28;20221;-57
2023/01/16 10:49:55;;;;;;;1.87;1.77;;;;;;;3.83;89.42;94287.59;5072513;28;20225;-58
2023/01/16 10:52:22;;;;;;;2.07;1.80;;;;;;;3.91;92.35;94293.66;5073151;28;20203;-58
2023/01/16 10:54:51;;;;;;;3.90;1.70;;;;;;;4.01;94.32;94280.44;5072374;28;20550;-58
2023/01/16 10:57:19;;;;;;;1.60;1.50;;;;;;;4.03;90.71;94269.84;5073154;28;20217;-58
2023/01/16 10:59:47;;;;;;;1.80;1.50;;;;;;;4.13;92.34;94284.38;5073071;28;20217;-58
2023/01/16 11:02:18;;;;;;;1.80;1.60;;;;;;;4.12;90.12;94279.31;5072408;28;20238;-57
2023/01/16 11:04:45;;;;;;;2.67;1.80;;;;;;;4.18;90.74;94276.06;5072825;28;20255;-58
2023/01/16 11:07:17;;;;;;;1.97;1.73;;;;;;;4.18;88.16;94273.44;5072849;28;20198;-57
2023/01/16 11:09:45;;;;;;;2.10;2.00;;;;;;;4.14;88.49;94253.84;5072031;28;21429;-59
2023/01/16 11:20:45;;;;;;;2.20;1.77;;;;;;;4.14;85.08;94251.22;5071996;28;20228;-58
2023/01/16 11:23:17;;;;;;;2.13;1.70;;;;;;;4.27;87.70;94248.94;5072254;28;20276;-57
2023/01/16 11:25:44;;;;;;;2.43;1.47;;;;;;;4.32;86.86;94244.03;5071526;28;20631;-58
2023/01/16 11:28:16;;;;;;;1.20;1.10;;;;;;;4.38;87.04;94249.44;5072066;28;20264;-58
2023/01/16 11:30:44;;;;;;;1.17;1.17;;;;;;;4.43;86.04;94230.59;5071495;28;20224;-57
2023/01/16 11:33:15;;;;;;;1.50;1.40;;;;;;;4.52;85.69;94234.84;5072350;28;20532;-57
2023/01/16 11:35:45;;;;;;;2.37;2.17;;;;;;;4.52;83.86;94229.63;5072365;28;20219;-58
2023/01/16 11:38:14;;;;;;;1.27;1.17;;;;;;;4.47;83.86;94224.88;5072317;28;20198;-58
2023/01/16 11:40:45;;;;;;;1.20;1.13;;;;;;;4.43;86.84;94233.22;5071731;28;20205;-57
2023/01/16 11:46:03;;;;;;;1.17;1.00;;;;;;;4.28;85.79;94220.00;5071115;28;20526;-58
2023/01/16 11:48:35;;;;;;;1.10;1.00;;;;;;;4.36;85.22;94225.22;5074748;28;20202;-57
2023/01/16 11:51:03;;;;;;;1.43;1.33;;;;;;;4.32;84.56;94223.91;5072258;28;20191;-57
2023/01/16 11:53:31;;;;;;;0.90;0.90;;;;;;;4.34;84.61;94208.06;5072321;28;20209;-57
2023/01/16 11:56:35;;;;;;;1.03;1.03;;;;;;;4.29;86.25;94181.56;5072209;28;20206;-57
2023/01/16 11:59:10;;;;;;;0.83;0.83;;;;;;;4.38;86.11;94176.19;5069921;28;20202;-57
2023/01/16 12:04:33;;;;;;;1.43;1.33;;;;;;;4.65;83.12;94150.59;5071579;28;20205;-56
2023/01/16 12:07:06;;;;;;;0.90;0.90;;;;;;;4.64;80.52;94146.34;5071297;28;20206;-57
2023/01/16 12:09:40;;;;;;;0.97;0.97;;;;;;;4.82;79.86;94152.16;5070952;28;20209;-58
2023/01/16 12:15:02;;;;;;;1.60;1.03;;;;;;;4.96;81.00;94139.19;5060052;28;20187;-57
2023/01/16 12:17:38;;;;;;;0.80;0.80;;;;;;;4.86;76.07;94137.75;5072223;28;20347;-58
2023/01/16 12:20:11;;;;;;;1.00;1.00;;;;;;;4.82;76.37;94139.91;5071643;28;20225;-57
2023/01/16 12:23:15;;;;;;;1.23;1.13;;;;;;;4.93;77.32;94126.44;5071269;28;20217;-58
2023/01/16 12:25:50;;;;;;;2.40;0.70;;;;;;;5.07;78.78;94114.41;5047028;28;20206;-58
2023/01/16 12:28:28;;;;;;;1.87;1.20;;;;;;;5.15;79.08;94110.94;5072099;28;20232;-57
2023/01/16 12:31:16;;;;;;;1.80;1.03;;;;;;;5.39;79.34;94095.91;5072221;28;20195;-58
2023/01/16 12:33:47;;;;;;;1.50;1.40;;;;;;;5.66;76.14;94096.38;5073788;28;20202;-57
2023/01/16 12:36:17;;;;;;;1.90;1.00;;;;;;;5.45;74.12;94092.59;5080648;28;20229;-57
2023/01/16 12:38:51;;;;;;;2.17;1.20;;;;;;;5.33;75.36;94095.78;5090033;28;20217;-56
2023/01/16 12:44:28;;;;;;;1.10;1.00;;;;;;;5.75;75.05;94061.22;5091988;28;20201;-56
2023/01/16 12:47:07;;;;;;;1.10;1.00;;;;;;;6.00;74.60;94044.31;5093436;28;20203;-56
2023/01/16 12:49:45;;;;;;;4.97;1.20;;;;;;;6.18;72.29;94031.69;5091943;28;20205;-57